Time;durP1;ratioP1;P1;durP2;ratioP2;P2;SDS_P1;SDS_P2;PMS_P1;PMS_P2;Temp;Humidity;BMP_temperature;BMP_pressure;BME280_temperature;BME280_humidity;BME280_pressure;Samples;Min_cycle;Max_cycle;Signal;HPM_P1;HPM_P2
2021/08/28 00:00:25;;;;;;;14.70;3.50;;;45.20;18.00;;;;;;4930611;29;20101;-61
2021/08/28 00:02:51;;;;;;;12.15;3.63;;;45.20;18.20;;;;;;4929932;29;20058;-61
2021/08/28 00:05:18;;;;;;;10.48;3.78;;;45.30;17.80;;;;;;4931433;29;20066;-61
2021/08/28 00:07:44;;;;;;;21.55;4.18;;;45.20;17.80;;;;;;4927562;29;20078;-61
2021/08/28 00:10:11;;;;;;;22.20;4.60;;;45.20;18.60;;;;;;4932364;29;20090;-61
2021/08/28 00:12:38;;;;;;;15.90;4.55;;;45.20;18.10;;;;;;4931345;29;20066;-61
2021/08/28 00:15:09;;;;;;;25.45;5.40;;;45.30;18.20;;;;;;4931226;29;20548;-61
2021/08/28 00:17:39;;;;;;;17.45;5.15;;;45.20;18.20;;;;;;4929304;29;20095;-62
2021/08/28 00:20:09;;;;;;;12.95;4.55;;;45.10;17.90;;;;;;4929818;29;20155;-61
2021/08/28 00:22:37;;;;;;;13.95;4.32;;;45.10;18.80;;;;;;4935441;29;20121;-61
2021/08/28 00:25:04;;;;;;;14.55;3.85;;;45.00;18.80;;;;;;4928457;29;20125;-61
2021/08/28 00:27:33;;;;;;;16.13;4.18;;;45.00;18.80;;;;;;4930745;29;20065;-62
2021/08/28 00:29:59;;;;;;;11.80;4.40;;;44.80;18.60;;;;;;4930199;29;20075;-62
2021/08/28 00:32:26;;;;;;;15.70;4.20;;;44.80;18.00;;;;;;4926538;29;20491;-61
2021/08/28 00:34:53;;;;;;;15.80;4.55;;;44.70;18.50;;;;;;4930364;29;20117;-60
2021/08/28 00:37:19;;;;;;;18.52;5.10;;;44.70;18.80;;;;;;4927406;29;20062;-59
2021/08/28 00:39:47;;;;;;;9.18;4.78;;;44.60;18.80;;;;;;4927282;29;20489;-61
2021/08/28 00:42:13;;;;;;;15.45;4.72;;;44.60;18.30;;;;;;4927498;29;20060;-61
2021/08/28 00:44:45;;;;;;;12.02;4.85;;;44.40;18.20;;;;;;4932404;29;20513;-62
2021/08/28 00:47:20;;;;;;;16.63;4.72;;;44.40;18.60;;;;;;4930917;29;20103;-60
2021/08/28 00:49:49;;;;;;;16.15;4.93;;;44.30;18.40;;;;;;4928996;29;20067;-61
2021/08/28 00:52:17;;;;;;;14.45;4.40;;;44.20;18.30;;;;;;4933205;29;20074;-62
2021/08/28 00:54:44;;;;;;;15.30;4.50;;;44.20;18.50;;;;;;4931015;29;20186;-60
2021/08/28 00:57:11;;;;;;;9.38;3.80;;;44.10;18.20;;;;;;4917951;29;20086;-61
2021/08/28 00:59:41;;;;;;;10.48;4.07;;;44.10;18.20;;;;;;4928904;29;20154;-58
2021/08/28 01:02:08;;;;;;;13.68;3.70;;;44.50;19.10;;;;;;4933696;29;20433;-57
2021/08/28 01:05:09;;;;;;;19.23;4.13;;;45.40;17.90;;;;;;4930175;29;20146;-59
2021/08/28 01:07:59;;;;;;;20.50;4.15;;;45.60;17.40;;;;;;4919841;29;20091;-59
2021/08/28 01:10:34;;;;;;;18.67;3.67;;;45.70;17.30;;;;;;4929729;29;20404;-57
2021/08/28 01:13:05;;;;;;;13.18;3.50;;;45.70;17.40;;;;;;4930669;29;20068;-59
2021/08/28 01:15:32;;;;;;;15.68;4.30;;;45.50;17.80;;;;;;4931362;29;20100;-58
2021/08/28 01:17:59;;;;;;;17.25;4.00;;;45.20;20.30;;;;;;4929305;29;20099;-55
2021/08/28 01:20:43;;;;;;;24.60;4.82;;;45.00;21.40;;;;;;4926324;29;20068;-58
2021/08/28 01:23:11;;;;;;;17.98;4.00;;;44.90;21.70;;;;;;4912883;29;20077;-58
2021/08/28 01:25:40;;;;;;;16.45;4.00;;;45.10;21.80;;;;;;4928265;29;20093;-55
2021/08/28 01:28:12;;;;;;;14.77;3.72;;;44.90;21.50;;;;;;4926037;29;20065;-58
2021/08/28 01:30:43;;;;;;;14.25;3.78;;;44.80;21.50;;;;;;4928370;29;20066;-59
2021/08/28 01:33:12;;;;;;;19.48;4.05;;;44.60;22.00;;;;;;4929361;29;20165;-59
2021/08/28 01:35:43;;;;;;;17.52;4.28;;;44.50;22.20;;;;;;4925850;29;20617;-58
2021/08/28 01:38:11;;;;;;;25.50;4.35;;;44.40;22.00;;;;;;4931349;29;20094;-58
2021/08/28 01:40:38;;;;;;;19.45;4.40;;;44.20;22.00;;;;;;4926972;29;20423;-59
2021/08/28 01:43:07;;;;;;;30.98;3.80;;;44.10;21.90;;;;;;4924882;29;20426;-58
2021/08/28 01:45:34;;;;;;;16.55;4.18;;;43.90;21.40;;;;;;4926200;29;20080;-58
2021/08/28 01:48:01;;;;;;;18.80;4.03;;;43.70;21.30;;;;;;4926361;29;20639;-58
2021/08/28 01:50:30;;;;;;;18.98;4.15;;;43.60;21.40;;;;;;4940072;29;20112;-59
2021/08/28 01:52:56;;;;;;;17.08;3.42;;;43.70;20.60;;;;;;4928192;29;20134;-59
2021/08/28 01:55:23;;;;;;;20.38;3.80;;;43.60;20.40;;;;;;4925093;29;20186;-58
2021/08/28 01:57:50;;;;;;;12.52;3.60;;;43.40;20.20;;;;;;4925646;29;20069;-58
2021/08/28 02:00:17;;;;;;;18.73;3.95;;;43.50;20.50;;;;;;4927694;29;20079;-57
2021/08/28 02:02:43;;;;;;;19.48;3.72;;;43.50;20.60;;;;;;4930777;29;20080;-58
2021/08/28 02:05:12;;;;;;;14.32;4.00;;;43.30;20.70;;;;;;4928352;29;20080;-58
2021/08/28 02:08:04;;;;;;;21.70;4.25;;;43.30;20.90;;;;;;4925517;29;20078;-58
2021/08/28 02:10:48;;;;;;;20.88;4.07;;;43.20;21.30;;;;;;4927041;29;20098;-57
2021/08/28 02:13:41;;;;;;;21.75;3.60;;;43.20;21.70;;;;;;4926705;29;20419;-58
2021/08/28 02:16:14;;;;;;;21.60;4.72;;;42.90;22.10;;;;;;4927246;29;20160;-59
2021/08/28 02:19:14;;;;;;;13.43;4.10;;;42.90;22.60;;;;;;4929195;29;20572;-59
2021/08/28 02:21:42;;;;;;;21.10;4.50;;;42.80;22.90;;;;;;4920336;29;20092;-59
2021/08/28 02:24:19;;;;;;;32.25;5.28;;;42.80;23.30;;;;;;4929664;29;20220;-58
2021/08/28 02:27:00;;;;;;;28.67;4.97;;;42.60;23.50;;;;;;4920711;29;20087;-59
2021/08/28 02:29:34;;;;;;;38.70;6.00;;;42.50;24.00;;;;;;4925838;29;20790;-59
2021/08/28 02:32:02;;;;;;;35.78;5.38;;;42.30;24.50;;;;;;4928001;29;20063;-59
2021/08/28 02:34:32;;;;;;;30.00;5.35;;;42.20;24.90;;;;;;4925528;29;20171;-56
2021/08/28 02:37:00;;;;;;;20.65;4.20;;;42.20;25.00;;;;;;4926101;29;20091;-58
2021/08/28 02:39:29;;;;;;;25.30;5.05;;;42.10;25.60;;;;;;4912110;29;20113;-59
2021/08/28 02:41:58;;;;;;;38.17;5.60;;;41.80;26.30;;;;;;4924590;29;20083;-57
2021/08/28 02:44:26;;;;;;;30.27;5.90;;;41.80;26.80;;;;;;4928055;29;20069;-58
2021/08/28 02:46:55;;;;;;;59.42;6.20;;;41.70;27.20;;;;;;4921353;29;20083;-59
2021/08/28 02:49:22;;;;;;;45.05;5.97;;;41.60;27.70;;;;;;4924440;29;20115;-56
2021/08/28 02:51:50;;;;;;;45.53;5.88;;;41.50;28.00;;;;;;4926418;29;20442;-57
2021/08/28 02:54:19;;;;;;;43.85;6.18;;;41.40;28.00;;;;;;4926661;29;20077;-58
2021/08/28 02:56:49;;;;;;;52.95;6.28;;;41.30;28.10;;;;;;4922080;29;20096;-58
2021/08/28 02:59:20;;;;;;;46.67;6.10;;;41.30;27.70;;;;;;4918695;29;20076;-54
2021/08/28 03:01:47;;;;;;;34.92;6.47;;;41.20;27.40;;;;;;4927018;29;20112;-58
2021/08/28 03:04:17;;;;;;;51.47;7.40;;;41.10;27.50;;;;;;4926599;29;20072;-59
2021/08/28 03:06:46;;;;;;;59.00;7.13;;;41.10;27.80;;;;;;4928689;29;20155;-59
2021/08/28 03:09:15;;;;;;;64.72;7.82;;;41.00;27.80;;;;;;4911614;29;20486;-57
2021/08/28 03:11:41;;;;;;;59.45;7.28;;;40.90;27.70;;;;;;4926123;29;20076;-59
2021/08/28 03:14:08;;;;;;;56.05;8.55;;;40.90;27.80;;;;;;4923218;29;20159;-58
2021/08/28 03:16:41;;;;;;;51.88;7.80;;;40.90;27.90;;;;;;4928025;29;20108;-59
2021/08/28 03:19:09;;;;;;;68.68;7.82;;;40.80;28.00;;;;;;4923717;29;20078;-58
2021/08/28 03:21:39;;;;;;;48.10;6.53;;;40.80;27.70;;;;;;4929889;29;20509;-57
2021/08/28 03:24:06;;;;;;;55.88;7.22;;;40.70;27.70;;;;;;4924173;29;20081;-59
2021/08/28 03:26:34;;;;;;;71.38;8.02;;;40.50;27.60;;;;;;4929103;29;20072;-59
2021/08/28 03:29:02;;;;;;;62.15;7.53;;;40.50;27.50;;;;;;4926740;29;20080;-56
2021/08/28 03:31:29;;;;;;;54.85;6.97;;;40.50;27.00;;;;;;4926620;29;20088;-53
2021/08/28 03:33:59;;;;;;;58.00;7.97;;;40.40;26.90;;;;;;4928907;29;20171;-54
2021/08/28 03:36:26;;;;;;;55.67;7.60;;;40.40;26.80;;;;;;4927065;29;20104;-53
2021/08/28 03:38:53;;;;;;;54.17;6.15;;;40.30;26.40;;;;;;4922688;29;20073;-57
2021/08/28 03:41:19;;;;;;;53.25;7.00;;;40.30;26.40;;;;;;4927311;29;20080;-55
2021/08/28 03:43:47;;;;;;;45.78;7.80;;;40.30;26.40;;;;;;4924082;29;20597;-57
2021/08/28 03:46:14;;;;;;;57.92;8.00;;;40.20;26.10;;;;;;4925116;29;20076;-58
2021/08/28 03:48:42;;;;;;;75.93;8.57;;;40.10;26.40;;;;;;4924725;29;20116;-56
2021/08/28 03:51:08;;;;;;;61.63;8.98;;;40.00;26.50;;;;;;4915395;29;20080;-55
2021/08/28 03:53:35;;;;;;;46.50;6.93;;;40.10;26.30;;;;;;4930393;29;20512;-55
2021/08/28 03:56:05;;;;;;;61.85;7.03;;;39.90;26.30;;;;;;4911450;29;20104;-53
2021/08/28 03:58:34;;;;;;;55.22;7.10;;;39.80;26.20;;;;;;4926797;29;20450;-59
2021/08/28 04:01:02;;;;;;;55.30;6.78;;;39.80;26.20;;;;;;4930748;29;20080;-58
2021/08/28 04:03:28;;;;;;;38.30;5.97;;;39.80;26.30;;;;;;4930467;29;20176;-58
2021/08/28 04:05:58;;;;;;;40.35;6.22;;;39.70;26.20;;;;;;4926545;29;20159;-57
2021/08/28 04:08:25;;;;;;;42.45;6.45;;;39.60;26.10;;;;;;4929765;29;20083;-60
2021/08/28 04:10:51;;;;;;;42.83;6.07;;;39.60;25.90;;;;;;4931431;29;20132;-57
2021/08/28 04:13:18;;;;;;;29.50;5.45;;;39.50;25.90;;;;;;4917503;29;20491;-59
2021/08/28 04:15:44;;;;;;;39.92;5.72;;;39.50;25.90;;;;;;4925997;29;20577;-56
2021/08/28 04:18:11;;;;;;;27.15;5.80;;;39.50;25.90;;;;;;4944679;29;20121;-56
2021/08/28 04:20:38;;;;;;;42.25;6.72;;;39.50;26.60;;;;;;4934697;29;20063;-58
2021/08/28 04:23:04;;;;;;;22.63;5.15;;;39.40;26.20;;;;;;4931777;29;20127;-56
2021/08/28 04:25:31;;;;;;;23.35;5.68;;;39.30;26.20;;;;;;4931676;29;20144;-55
2021/08/28 04:28:02;;;;;;;36.35;5.57;;;39.30;26.30;;;;;;4931823;29;20408;-61
2021/08/28 04:30:29;;;;;;;31.65;5.72;;;39.10;27.60;;;;;;4933614;29;20050;-56
2021/08/28 04:32:56;;;;;;;35.90;5.88;;;38.80;53.30;;;;;;4929410;29;20023;-53
2021/08/28 04:35:22;;;;;;;22.30;4.88;;;38.90;26.80;;;;;;4918860;29;20093;-57
2021/08/28 04:37:49;;;;;;;29.85;5.80;;;38.90;49.70;;;;;;4928707;29;20061;-53
2021/08/28 04:40:16;;;;;;;18.10;4.90;;;38.90;28.60;;;;;;4932423;29;20530;-56
2021/08/28 04:42:43;;;;;;;19.40;5.30;;;38.80;47.80;;;;;;4929523;29;20029;-58
2021/08/28 04:45:10;;;;;;;29.00;5.47;;;38.90;28.20;;;;;;4929794;29;20080;-58
2021/08/28 04:47:36;;;;;;;25.15;4.72;;;38.80;28.30;;;;;;4930636;29;20071;-58
2021/08/28 04:50:04;;;;;;;18.90;4.78;;;38.80;28.30;;;;;;4927291;29;20134;-55
2021/08/28 04:52:30;;;;;;;14.43;4.55;;;38.70;28.50;;;;;;4934131;29;20090;-55
2021/08/28 04:54:57;;;;;;;22.42;5.28;;;38.70;28.40;;;;;;4928942;29;20523;-54
2021/08/28 04:57:23;;;;;;;18.98;4.72;;;38.80;28.60;;;;;;4924410;29;20035;-58
2021/08/28 04:59:50;;;;;;;14.95;4.50;;;38.60;28.80;;;;;;4930530;29;20506;-58
2021/08/28 05:02:16;;;;;;;17.58;5.30;;;38.60;29.00;;;;;;4930434;29;20087;-58
2021/08/28 05:04:43;;;;;;;19.15;4.93;;;38.90;44.00;;;;;;4923039;29;20052;-55
2021/08/28 05:07:09;;;;;;;19.48;4.82;;;38.40;52.50;;;;;;4928481;29;20481;-56
2021/08/28 05:09:36;;;;;;;16.73;4.60;;;38.50;29.50;;;;;;4929130;29;20135;-55
2021/08/28 05:12:03;;;;;;;16.95;4.50;;;38.40;29.80;;;;;;4926233;29;20058;-54
2021/08/28 05:14:29;;;;;;;11.48;4.05;;;38.40;29.50;;;;;;4927704;29;20119;-57
2021/08/28 05:16:55;;;;;;;10.98;4.38;;;38.40;29.50;;;;;;4923643;29;20199;-54
2021/08/28 05:19:22;;;;;;;12.43;4.13;;;38.30;29.40;;;;;;4942030;29;20036;-54
2021/08/28 05:21:49;;;;;;;16.98;4.35;;;38.20;29.50;;;;;;4924471;29;20204;-55
2021/08/28 05:24:15;;;;;;;12.57;4.32;;;38.10;29.80;;;;;;4929278;29;20163;-55
2021/08/28 05:26:42;;;;;;;18.73;4.10;;;38.00;30.10;;;;;;4932546;29;20100;-56
2021/08/28 05:29:08;;;;;;;18.73;5.18;;;38.00;30.20;;;;;;4931000;29;20076;-53
2021/08/28 05:31:35;;;;;;;14.25;4.45;;;37.90;30.50;;;;;;4928632;29;20076;-54
2021/08/28 05:34:01;;;;;;;15.40;4.78;;;37.80;30.40;;;;;;4931278;29;20105;-53
2021/08/28 05:36:28;;;;;;;17.42;5.30;;;37.70;30.40;;;;;;4928111;29;20234;-53
2021/08/28 05:38:55;;;;;;;17.42;5.00;;;37.70;30.30;;;;;;4921818;29;20076;-55
2021/08/28 05:41:22;;;;;;;20.50;5.25;;;37.70;30.20;;;;;;4927238;29;20198;-57
2021/08/28 05:43:49;;;;;;;19.35;5.55;;;37.60;30.60;;;;;;4926897;29;20080;-57
2021/08/28 05:46:16;;;;;;;23.77;6.22;;;37.60;31.80;;;;;;4929167;29;20080;-56
2021/08/28 05:48:42;;;;;;;23.58;6.68;;;37.50;31.30;;;;;;4917701;29;20115;-54
2021/08/28 05:51:09;;;;;;;23.13;7.68;;;37.40;30.90;;;;;;4917299;29;20077;-57
2021/08/28 05:53:35;;;;;;;25.08;6.28;;;37.40;31.10;;;;;;4931314;29;20072;-53
2021/08/28 05:56:02;;;;;;;21.17;6.47;;;37.30;31.30;;;;;;4933263;29;20120;-52
2021/08/28 05:58:28;;;;;;;19.70;6.63;;;37.20;31.80;;;;;;4929920;29;20128;-54
2021/08/28 06:00:55;;;;;;;23.67;6.30;;;37.10;31.90;;;;;;4929076;29;20179;-56
2021/08/28 06:03:21;;;;;;;19.83;6.78;;;37.00;32.20;;;;;;4912452;29;20154;-56
2021/08/28 06:05:48;;;;;;;23.05;6.30;;;36.90;31.20;;;;;;4908994;29;20088;-55
2021/08/28 06:08:14;;;;;;;18.83;6.72;;;36.90;31.30;;;;;;4928024;29;20084;-55
2021/08/28 06:10:41;;;;;;;19.75;7.00;;;36.80;31.60;;;;;;4925516;29;20102;-55
2021/08/28 06:13:08;;;;;;;20.35;6.88;;;36.80;31.90;;;;;;4913144;29;20077;-55
2021/08/28 06:15:34;;;;;;;26.25;6.72;;;36.80;31.90;;;;;;4931616;29;20100;-56
2021/08/28 06:18:01;;;;;;;26.65;6.80;;;36.80;32.10;;;;;;4927194;29;20529;-56
2021/08/28 06:20:27;;;;;;;22.45;5.90;;;36.70;32.80;;;;;;4928016;29;20080;-56
2021/08/28 06:22:54;;;;;;;25.23;6.22;;;36.70;32.90;;;;;;4927805;29;20099;-56
2021/08/28 06:25:20;;;;;;;16.35;6.20;;;36.70;33.70;;;;;;4928101;29;20077;-56
2021/08/28 06:27:47;;;;;;;20.08;6.30;;;36.60;34.30;;;;;;4930260;29;20159;-54
2021/08/28 06:30:14;;;;;;;20.02;6.60;;;36.60;35.30;;;;;;4928584;29;20194;-56
2021/08/28 06:32:40;;;;;;;15.10;5.63;;;36.50;34.70;;;;;;4926849;29;20072;-57
2021/08/28 06:35:07;;;;;;;21.08;6.38;;;36.50;35.00;;;;;;4927514;29;20110;-57
2021/08/28 06:37:34;;;;;;;23.02;6.97;;;36.40;36.00;;;;;;4929776;29;20080;-57
2021/08/28 06:40:00;;;;;;;22.95;6.85;;;36.40;36.90;;;;;;4923038;29;20080;-53
2021/08/28 06:42:27;;;;;;;22.95;6.63;;;36.30;37.20;;;;;;4927469;29;20076;-55
2021/08/28 06:44:53;;;;;;;18.13;7.03;;;36.20;37.80;;;;;;4927340;29;20088;-55
2021/08/28 06:47:20;;;;;;;18.30;7.85;;;36.20;38.70;;;;;;4931477;29;20510;-54
2021/08/28 06:49:46;;;;;;;26.27;10.13;;;36.20;39.20;;;;;;4930143;29;20506;-57
2021/08/28 06:52:13;;;;;;;28.10;10.50;;;36.20;40.30;;;;;;4926301;29;20080;-53
2021/08/28 06:54:40;;;;;;;31.52;11.70;;;36.10;41.20;;;;;;4930132;29;20433;-56
2021/08/28 06:57:06;;;;;;;29.92;10.80;;;35.90;43.70;;;;;;4928166;29;20084;-56
2021/08/28 06:59:33;;;;;;;24.60;9.40;;;35.90;46.50;;;;;;4929396;29;20124;-58
2021/08/28 07:01:59;;;;;;;25.27;9.48;;;35.80;47.40;;;;;;4924846;29;20084;-57
2021/08/28 07:04:26;;;;;;;28.88;9.07;;;35.70;48.40;;;;;;4927508;29;20080;-58
2021/08/28 07:06:52;;;;;;;32.17;9.18;;;35.60;48.90;;;;;;4927327;29;20467;-58
2021/08/28 07:09:20;;;;;;;37.55;9.75;;;35.50;49.70;;;;;;4925312;29;20095;-57
2021/08/28 07:11:47;;;;;;;33.85;10.27;;;35.30;53.00;;;;;;4927199;29;20072;-58
2021/08/28 07:14:14;;;;;;;31.50;10.77;;;35.30;50.50;;;;;;4926265;29;20080;-54
2021/08/28 07:16:40;;;;;;;33.33;11.40;;;35.30;50.80;;;;;;4928632;29;20104;-54
2021/08/28 07:19:07;;;;;;;29.55;10.85;;;35.20;51.00;;;;;;4925592;29;20080;-54
2021/08/28 07:21:33;;;;;;;30.30;10.57;;;35.20;51.50;;;;;;4928395;29;20131;-58
2021/08/28 07:24:00;;;;;;;22.60;8.90;;;35.10;52.10;;;;;;4927218;29;20076;-58
2021/08/28 07:26:27;;;;;;;24.77;8.55;;;35.00;53.50;;;;;;4933767;29;20179;-56
2021/08/28 07:28:53;;;;;;;24.83;8.88;;;34.80;54.70;;;;;;4929660;29;20131;-56
2021/08/28 07:31:20;;;;;;;19.23;7.18;;;34.60;55.80;;;;;;4928064;29;20096;-57
2021/08/28 07:33:47;;;;;;;21.58;8.20;;;34.50;56.70;;;;;;4933086;29;20111;-57
2021/08/28 07:36:13;;;;;;;18.67;8.00;;;34.50;57.50;;;;;;4932954;29;20109;-58
2021/08/28 07:38:40;;;;;;;16.60;7.70;;;34.40;71.20;;;;;;4936003;29;20077;-54
2021/08/28 07:41:06;;;;;;;26.80;8.68;;;34.30;58.40;;;;;;4930121;29;20159;-57
2021/08/28 07:43:33;;;;;;;21.25;8.40;;;34.30;58.70;;;;;;4932305;29;20100;-56
2021/08/28 07:45:59;;;;;;;15.57;7.32;;;34.20;59.80;;;;;;4929139;29;20147;-54
2021/08/28 07:48:26;;;;;;;19.00;8.35;;;34.10;61.40;;;;;;4930332;29;20207;-56
2021/08/28 07:50:53;;;;;;;19.23;8.35;;;34.00;61.80;;;;;;4932322;29;20084;-57
2021/08/28 07:53:20;;;;;;;19.08;7.30;;;34.00;61.80;;;;;;4931973;29;20076;-57
2021/08/28 07:55:46;;;;;;;18.25;7.05;;;33.90;61.00;;;;;;4933334;29;20580;-54
2021/08/28 07:58:13;;;;;;;20.05;6.60;;;33.80;61.00;;;;;;4932459;29;20077;-56
2021/08/28 08:00:40;;;;;;;18.33;6.88;;;34.00;60.90;;;;;;4934760;29;20171;-58
2021/08/28 08:03:06;;;;;;;15.13;7.95;;;34.10;60.30;;;;;;4932537;29;20072;-58
2021/08/28 08:05:33;;;;;;;22.23;7.53;;;34.10;60.30;;;;;;4931396;29;20088;-56
2021/08/28 08:08:00;;;;;;;20.00;7.00;;;33.90;61.10;;;;;;4931242;29;20084;-58
2021/08/28 08:10:26;;;;;;;18.50;7.07;;;33.80;62.20;;;;;;4930238;29;20510;-58
2021/08/28 08:12:53;;;;;;;16.50;7.05;;;33.70;63.80;;;;;;4931316;29;20139;-55
2021/08/28 08:15:21;;;;;;;14.38;6.57;;;33.70;64.10;;;;;;4929752;29;20088;-55
2021/08/28 08:17:48;;;;;;;25.50;7.20;;;33.60;64.90;;;;;;4932531;29;20538;-58
2021/08/28 08:20:14;;;;;;;18.88;6.95;;;33.60;65.50;;;;;;4928760;29;20557;-58
2021/08/28 08:22:43;;;;;;;18.88;6.15;;;33.30;66.70;;;;;;4931443;29;20091;-59
2021/08/28 08:25:10;;;;;;;19.08;6.93;;;33.40;66.90;;;;;;4934368;29;20542;-58
2021/08/28 08:27:36;;;;;;;22.10;6.90;;;33.40;67.20;;;;;;4932333;29;20072;-57
2021/08/28 08:30:04;;;;;;;17.23;6.80;;;33.40;67.30;;;;;;4929240;29;20100;-56
2021/08/28 08:32:31;;;;;;;20.35;6.97;;;33.40;68.00;;;;;;4929292;29;20073;-55
2021/08/28 08:34:58;;;;;;;20.95;7.53;;;33.30;68.70;;;;;;4926925;29;20149;-56
2021/08/28 08:37:25;;;;;;;19.63;7.60;;;33.30;69.20;;;;;;4930255;29;20132;-56
2021/08/28 08:39:51;;;;;;;16.90;6.53;;;33.30;69.50;;;;;;4930485;29;20077;-57
2021/08/28 08:42:22;;;;;;;17.77;6.47;;;33.20;69.80;;;;;;4921352;29;20553;-57
2021/08/28 08:44:48;;;;;;;18.67;7.28;;;33.10;70.20;;;;;;4930069;29;20426;-58
2021/08/28 08:47:16;;;;;;;19.52;7.63;;;33.20;71.00;;;;;;4932482;29;20078;-57
2021/08/28 08:49:43;;;;;;;26.80;7.32;;;33.20;71.70;;;;;;4931524;29;20447;-57
2021/08/28 08:52:11;;;;;;;18.85;7.20;;;33.20;72.70;;;;;;4932917;29;20104;-57
2021/08/28 08:54:38;;;;;;;19.25;7.25;;;33.10;72.50;;;;;;4930710;29;20086;-59
2021/08/28 08:57:05;;;;;;;17.58;6.75;;;33.10;73.10;;;;;;4932645;29;20117;-58
2021/08/28 08:59:32;;;;;;;22.80;6.90;;;33.10;74.00;;;;;;4929377;29;21033;-59
2021/08/28 09:02:01;;;;;;;17.02;8.13;;;33.10;74.60;;;;;;4930732;29;20080;-58
2021/08/28 09:04:28;;;;;;;23.23;7.28;;;33.00;76.20;;;;;;4930061;29;20116;-57
2021/08/28 09:06:54;;;;;;;18.38;7.47;;;33.00;77.40;;;;;;4929617;29;20080;-57
2021/08/28 09:09:22;;;;;;;18.15;7.57;;;33.10;78.10;;;;;;4929599;29;20115;-55
2021/08/28 09:12:03;;;;;;;20.23;8.35;;;33.10;79.00;;;;;;4929747;29;20083;-55
2021/08/28 09:14:30;;;;;;;22.63;9.15;;;33.10;79.50;;;;;;4931618;29;20174;-55
2021/08/28 09:16:57;;;;;;;19.30;7.78;;;33.10;80.00;;;;;;4930567;29;20111;-55
2021/08/28 09:19:37;;;;;;;24.15;7.82;;;32.90;80.90;;;;;;4929882;29;20080;-57
2021/08/28 09:22:09;;;;;;;23.05;7.68;;;32.80;82.00;;;;;;4929452;29;20083;-57
2021/08/28 09:24:44;;;;;;;29.55;7.63;;;33.00;82.10;;;;;;4930132;29;21381;-53
2021/08/28 09:27:11;;;;;;;19.77;7.85;;;33.00;82.10;;;;;;4928972;29;20076;-55
2021/08/28 09:29:43;;;;;;;20.25;7.50;;;32.90;82.50;;;;;;4930554;29;20076;-55
2021/08/28 09:32:11;;;;;;;16.38;7.35;;;32.90;83.70;;;;;;4927234;29;20076;-56
2021/08/28 09:34:40;;;;;;;21.70;7.35;;;32.70;84.60;;;;;;4927250;29;20558;-54
2021/08/28 09:37:07;;;;;;;19.13;7.30;;;32.70;85.30;;;;;;4926845;29;20115;-54
2021/08/28 09:39:41;;;;;;;20.55;7.25;;;32.70;85.60;;;;;;4931699;29;20454;-54
2021/08/28 09:42:09;;;;;;;19.88;7.90;;;32.70;85.90;;;;;;4926079;29;20174;-57
2021/08/28 09:44:37;;;;;;;19.88;7.28;;;32.70;86.30;;;;;;4928846;29;20156;-56
2021/08/28 09:47:29;;;;;;;22.20;7.65;;;32.50;87.80;;;;;;4926900;29;20080;-57
2021/08/28 09:49:55;;;;;;;20.58;7.75;;;32.50;88.50;;;;;;4929831;29;20096;-57
2021/08/28 09:52:25;;;;;;;25.95;8.45;;;32.50;88.90;;;;;;4915576;29;20167;-55
2021/08/28 09:54:53;;;;;;;22.10;8.23;;;32.40;89.10;;;;;;4930981;29;20163;-54
2021/08/28 09:57:21;;;;;;;18.70;8.48;;;32.40;90.00;;;;;;4932632;29;20119;-53
2021/08/28 09:59:48;;;;;;;24.75;9.00;;;32.40;90.30;;;;;;4928154;29;20084;-55
2021/08/28 10:02:17;;;;;;;31.85;12.02;;;32.40;90.20;;;;;;4930476;29;20111;-55
2021/08/28 10:04:52;;;;;;;38.58;12.73;;;32.50;90.30;;;;;;4930672;29;20079;-55
2021/08/28 10:07:31;;;;;;;34.50;13.10;;;32.50;90.30;;;;;;4929296;29;20564;-57
2021/08/28 10:10:01;;;;;;;31.73;13.52;;;32.50;90.40;;;;;;4928408;29;20108;-58
2021/08/28 10:12:31;;;;;;;31.02;13.25;;;32.50;90.50;;;;;;4930738;29;20084;-57
2021/08/28 10:14:58;;;;;;;31.95;11.98;;;32.50;90.50;;;;;;4926227;29;21574;-58
2021/08/28 10:17:27;;;;;;;27.92;12.13;;;32.50;91.10;;;;;;4925710;29;20088;-55
2021/08/28 10:19:55;;;;;;;43.95;16.33;;;32.40;90.90;;;;;;4929114;29;20538;-57
2021/08/28 10:22:29;;;;;;;40.75;17.13;;;32.30;91.50;;;;;;4929180;29;20088;-55
2021/08/28 10:24:57;;;;;;;43.78;16.70;;;32.40;91.60;;;;;;4931452;29;20095;-57
2021/08/28 10:27:28;;;;;;;44.88;15.90;;;32.40;91.40;;;;;;4926021;29;20108;-55
2021/08/28 10:29:55;;;;;;;37.75;16.10;;;32.40;91.50;;;;;;4932207;29;20504;-55
2021/08/28 10:32:22;;;;;;;41.05;15.40;;;32.30;91.50;;;;;;4925839;29;20434;-57
2021/08/28 10:34:50;;;;;;;31.70;14.45;;;32.40;91.70;;;;;;4926951;29;20183;-57
2021/08/28 10:37:18;;;;;;;34.80;14.88;;;32.30;91.80;;;;;;4930343;29;20111;-57
2021/08/28 10:39:48;;;;;;;34.10;15.20;;;32.30;91.90;;;;;;4926635;29;20087;-55
2021/08/28 10:42:16;;;;;;;31.42;13.80;;;32.30;91.90;;;;;;4929452;29;20084;-54
2021/08/28 10:44:43;;;;;;;31.85;11.98;;;32.30;91.90;;;;;;4926877;29;20660;-56
2021/08/28 10:47:14;;;;;;;34.55;12.27;;;32.20;92.20;;;;;;4929994;29;20119;-55
2021/08/28 10:49:46;;;;;;;31.70;11.07;;;32.10;92.20;;;;;;4926709;29;20428;-57
2021/08/28 10:52:23;;;;;;;33.92;12.13;;;32.10;92.50;;;;;;4928017;29;20091;-55
2021/08/28 10:54:57;;;;;;;30.27;12.00;;;32.20;92.30;;;;;;4928281;29;20076;-55
2021/08/28 10:57:28;;;;;;;31.08;12.77;;;32.20;92.10;;;;;;4925644;29;20565;-58
2021/08/28 11:00:17;;;;;;;37.13;12.60;;;32.10;92.40;;;;;;4925629;29;20080;-55
2021/08/28 11:02:58;;;;;;;32.75;13.25;;;32.10;92.70;;;;;;4926959;29;20127;-57
2021/08/28 11:05:28;;;;;;;33.83;12.88;;;32.10;92.80;;;;;;4925473;29;23067;-55
2021/08/28 11:07:56;;;;;;;29.88;12.98;;;32.10;92.60;;;;;;4928068;29;20077;-58
2021/08/28 11:10:29;;;;;;;27.63;12.43;;;32.10;92.80;;;;;;4928356;29;20080;-58
2021/08/28 11:12:57;;;;;;;31.95;12.02;;;31.90;93.10;;;;;;4928576;29;20099;-57
2021/08/28 11:15:33;;;;;;;28.52;11.95;;;31.90;93.70;;;;;;4929264;29;20128;-58
2021/08/28 11:18:03;;;;;;;27.92;10.95;;;31.90;93.90;;;;;;4930181;29;20080;-57
2021/08/28 11:20:38;;;;;;;24.48;11.25;;;31.90;93.80;;;;;;4929919;29;20084;-57
2021/08/28 11:23:18;;;;;;;27.08;11.93;;;31.90;93.60;;;;;;4928443;29;20182;-58
2021/08/28 11:25:47;;;;;;;22.40;10.93;;;32.00;93.50;;;;;;4927211;29;20084;-55
2021/08/28 11:28:15;;;;;;;25.17;10.90;;;32.10;93.40;;;;;;4925364;29;20084;-59
2021/08/28 11:30:55;;;;;;;31.20;11.48;;;32.10;93.70;;;;;;4927329;29;20076;-59
2021/08/28 11:33:24;;;;;;;24.35;10.77;;;32.00;93.50;;;;;;4930183;29;20167;-55
2021/08/28 11:35:59;;;;;;;26.17;11.35;;;32.00;93.60;;;;;;4926582;29;20092;-58
2021/08/28 11:38:49;;;;;;;30.73;12.77;;;32.00;93.70;;;;;;4929743;29;20138;-59
2021/08/28 11:41:22;;;;;;;25.80;12.07;;;32.00;93.70;;;;;;4927888;29;20076;-58
2021/08/28 11:43:50;;;;;;;25.23;10.70;;;31.90;93.50;;;;;;4927269;29;20080;-58
2021/08/28 11:46:27;;;;;;;22.73;9.98;;;31.70;94.40;;;;;;4930857;29;20081;-57
2021/08/28 11:48:54;;;;;;;18.85;9.25;;;31.70;94.60;;;;;;4929653;29;20123;-58
2021/08/28 11:51:26;;;;;;;26.52;9.70;;;31.70;94.70;;;;;;4925916;29;20085;-59
2021/08/28 11:53:55;;;;;;;20.95;8.25;;;31.60;94.80;;;;;;4927928;29;20136;-59
2021/08/28 11:56:23;;;;;;;21.52;9.00;;;31.60;94.90;;;;;;4930825;29;20100;-55
2021/08/28 11:59:00;;;;;;;24.48;7.70;;;31.70;94.90;;;;;;4926098;29;20083;-57
2021/08/28 12:01:31;;;;;;;20.52;8.00;;;31.50;93.90;;;;;;4929353;29;20553;-58
2021/08/28 12:04:02;;;;;;;19.38;8.02;;;31.50;94.30;;;;;;4926207;29;20080;-56
2021/08/28 12:06:30;;;;;;;20.98;8.48;;;31.40;93.80;;;;;;4922619;29;20085;-56
2021/08/28 12:08:57;;;;;;;22.67;8.02;;;31.40;93.60;;;;;;4927014;29;20089;-55
2021/08/28 12:11:25;;;;;;;22.15;8.23;;;31.40;93.80;;;;;;4927650;29;20097;-56
2021/08/28 12:13:56;;;;;;;18.55;7.93;;;31.30;93.40;;;;;;4929414;29;20076;-57
2021/08/28 12:16:33;;;;;;;19.98;8.23;;;31.20;93.30;;;;;;4932986;29;21620;-58
2021/08/28 12:19:23;;;;;;;18.38;8.57;;;31.30;93.00;;;;;;4927706;29;20080;-56
2021/08/28 12:21:55;;;;;;;22.50;8.15;;;31.00;92.20;;;;;;4928234;29;20142;-55
2021/08/28 12:24:26;;;;;;;18.42;7.88;;;30.90;92.20;;;;;;4931868;29;20131;-58
2021/08/28 12:26:54;;;;;;;23.80;8.55;;;30.90;92.10;;;;;;4933678;29;20107;-57
2021/08/28 12:29:28;;;;;;;21.17;8.18;;;31.00;92.00;;;;;;4932883;29;20444;-58
2021/08/28 12:31:59;;;;;;;21.30;8.32;;;31.00;91.90;;;;;;4930308;29;20072;-57
2021/08/28 12:34:31;;;;;;;20.70;7.63;;;30.90;92.00;;;;;;4928977;29;20542;-57
2021/08/28 12:37:00;;;;;;;19.38;8.05;;;30.90;91.90;;;;;;4931001;29;20119;-57
2021/08/28 12:39:27;;;;;;;20.70;8.48;;;30.90;91.50;;;;;;4931019;29;20069;-55
2021/08/28 12:41:55;;;;;;;21.83;8.23;;;30.90;91.50;;;;;;4931317;29;20415;-53
2021/08/28 12:44:22;;;;;;;25.88;8.55;;;30.70;90.80;;;;;;4918236;29;20072;-56